sensor_id;sensor_type;location;lat;lon;timestamp;pressure;altitude;pressure_sealevel;temperature;humidity
62508;BME280;48556;51.972;4.624;2022-08-07T00:02:06;102851.91;;;20.05;50.65
62508;BME280;48556;51.972;4.624;2022-08-07T00:04:31;102850.41;;;19.91;50.44
62508;BME280;48556;51.972;4.624;2022-08-07T00:06:57;102848.81;;;19.81;51.68
62508;BME280;48556;51.972;4.624;2022-08-07T00:09:22;102840.59;;;19.92;51.73
62508;BME280;48556;51.972;4.624;2022-08-07T00:11:49;102840.69;;;19.87;51.74
62508;BME280;48556;51.972;4.624;2022-08-07T00:14:15;102835.28;;;19.90;51.79
62508;BME280;48556;51.972;4.624;2022-08-07T00:16:41;102840.47;;;20.00;51.17
62508;BME280;48556;51.972;4.624;2022-08-07T00:19:06;102839.66;;;19.94;51.05
62508;BME280;48556;51.972;4.624;2022-08-07T00:21:32;102828.84;;;20.01;50.83
62508;BME280;48556;51.972;4.624;2022-08-07T00:23:58;102837.88;;;19.95;50.49
62508;BME280;48556;51.972;4.624;2022-08-07T00:26:26;102838.72;;;19.97;51.00
62508;BME280;48556;51.972;4.624;2022-08-07T00:28:52;102827.47;;;19.81;51.98
62508;BME280;48556;51.972;4.624;2022-08-07T00:31:18;102826.34;;;19.93;51.52
62508;BME280;48556;51.972;4.624;2022-08-07T00:33:44;102820.34;;;19.80;51.38
62508;BME280;48556;51.972;4.624;2022-08-07T00:36:09;102828.34;;;19.80;50.92
62508;BME280;48556;51.972;4.624;2022-08-07T00:38:36;102822.13;;;19.81;50.71
62508;BME280;48556;51.972;4.624;2022-08-07T00:41:03;102818.81;;;19.67;50.95
62508;BME280;48556;51.972;4.624;2022-08-07T00:43:29;102808.91;;;19.73;50.67
62508;BME280;48556;51.972;4.624;2022-08-07T00:45:55;102820.69;;;19.60;51.24
62508;BME280;48556;51.972;4.624;2022-08-07T00:48:20;102817.19;;;19.56;51.30
62508;BME280;48556;51.972;4.624;2022-08-07T00:50:46;102813.81;;;19.48;51.44
62508;BME280;48556;51.972;4.624;2022-08-07T00:53:12;102815.38;;;19.60;51.50
62508;BME280;48556;51.972;4.624;2022-08-07T00:55:37;102806.53;;;19.56;51.56
62508;BME280;48556;51.972;4.624;2022-08-07T00:58:03;102817.84;;;19.71;51.06
62508;BME280;48556;51.972;4.624;2022-08-07T01:00:29;102814.09;;;19.81;50.78
62508;BME280;48556;51.972;4.624;2022-08-07T01:02:55;102808.13;;;19.67;51.11
62508;BME280;48556;51.972;4.624;2022-08-07T01:05:21;102815.41;;;19.58;51.79
62508;BME280;48556;51.972;4.624;2022-08-07T01:07:48;102808.34;;;19.54;52.73
62508;BME280;48556;51.972;4.624;2022-08-07T01:10:14;102809.16;;;19.59;52.68
62508;BME280;48556;51.972;4.624;2022-08-07T01:12:41;102810.06;;;19.58;51.96
62508;BME280;48556;51.972;4.624;2022-08-07T01:15:08;102817.38;;;19.47;52.46
62508;BME280;48556;51.972;4.624;2022-08-07T01:17:34;102815.25;;;19.16;53.10
62508;BME280;48556;51.972;4.624;2022-08-07T01:20:06;102810.44;;;19.37;52.86
62508;BME280;48556;51.972;4.624;2022-08-07T01:22:32;102806.09;;;19.33;52.88
62508;BME280;48556;51.972;4.624;2022-08-07T01:24:59;102814.03;;;19.36;52.42
62508;BME280;48556;51.972;4.624;2022-08-07T01:27:25;102799.88;;;19.30;52.14
62508;BME280;48556;51.972;4.624;2022-08-07T01:29:51;102802.28;;;19.46;52.09
62508;BME280;48556;51.972;4.624;2022-08-07T01:32:17;102801.41;;;19.45;52.96
62508;BME280;48556;51.972;4.624;2022-08-07T01:34:43;102800.53;;;19.43;53.09
62508;BME280;48556;51.972;4.624;2022-08-07T01:37:10;102798.63;;;19.52;52.37
62508;BME280;48556;51.972;4.624;2022-08-07T01:39:38;102804.13;;;19.41;52.80
62508;BME280;48556;51.972;4.624;2022-08-07T01:42:04;102798.09;;;19.31;52.72
62508;BME280;48556;51.972;4.624;2022-08-07T01:44:30;102804.34;;;19.30;52.67
62508;BME280;48556;51.972;4.624;2022-08-07T01:46:57;102793.72;;;19.27;52.47
62508;BME280;48556;51.972;4.624;2022-08-07T01:49:23;102801.88;;;19.19;52.39
62508;BME280;48556;51.972;4.624;2022-08-07T01:51:49;102798.31;;;19.20;52.95
62508;BME280;48556;51.972;4.624;2022-08-07T01:54:18;102799.16;;;19.21;52.68
62508;BME280;48556;51.972;4.624;2022-08-07T01:56:51;102793.91;;;19.18;52.72
62508;BME280;48556;51.972;4.624;2022-08-07T01:59:25;102791.00;;;19.32;52.29
62508;BME280;48556;51.972;4.624;2022-08-07T02:02:06;102791.19;;;19.19;53.27
62508;BME280;48556;51.972;4.624;2022-08-07T02:04:58;102791.00;;;19.32;52.95
62508;BME280;48556;51.972;4.624;2022-08-07T02:07:33;102789.59;;;19.09;53.43
62508;BME280;48556;51.972;4.624;2022-08-07T02:10:02;102785.75;;;19.25;53.00
62508;BME280;48556;51.972;4.624;2022-08-07T02:12:32;102788.47;;;19.22;53.06
62508;BME280;48556;51.972;4.624;2022-08-07T02:15:01;102787.63;;;19.20;53.22
62508;BME280;48556;51.972;4.624;2022-08-07T02:17:28;102781.59;;;19.07;53.20
62508;BME280;48556;51.972;4.624;2022-08-07T02:19:56;102776.25;;;19.10;52.93
62508;BME280;48556;51.972;4.624;2022-08-07T02:22:24;102778.91;;;19.10;53.28
62508;BME280;48556;51.972;4.624;2022-08-07T02:24:53;102781.63;;;19.09;53.97
62508;BME280;48556;51.972;4.624;2022-08-07T02:27:22;102785.41;;;18.94;54.37
62508;BME280;48556;51.972;4.624;2022-08-07T02:29:51;102774.53;;;19.06;53.64
62508;BME280;48556;51.972;4.624;2022-08-07T02:32:20;102776.34;;;19.04;53.35
62508;BME280;48556;51.972;4.624;2022-08-07T02:34:48;102774.31;;;19.20;53.20
62508;BME280;48556;51.972;4.624;2022-08-07T02:37:17;102769.94;;;19.16;53.62
62508;BME280;48556;51.972;4.624;2022-08-07T02:39:45;102775.66;;;18.91;54.41
62508;BME280;48556;51.972;4.624;2022-08-07T02:42:12;102770.25;;;18.96;54.26
62508;BME280;48556;51.972;4.624;2022-08-07T02:44:43;102765.84;;;18.93;53.95
62508;BME280;48556;51.972;4.624;2022-08-07T02:47:10;102778.41;;;18.85;54.19
62508;BME280;48556;51.972;4.624;2022-08-07T02:49:37;102775.72;;;18.88;54.09
62508;BME280;48556;51.972;4.624;2022-08-07T02:52:07;102766.13;;;18.73;54.58
62508;BME280;48556;51.972;4.624;2022-08-07T02:54:40;102781.94;;;18.87;54.57
62508;BME280;48556;51.972;4.624;2022-08-07T02:57:18;102774.81;;;18.89;54.26
62508;BME280;48556;51.972;4.624;2022-08-07T02:59:48;102777.56;;;18.82;54.11
62508;BME280;48556;51.972;4.624;2022-08-07T03:02:16;102765.81;;;18.97;53.88
62508;BME280;48556;51.972;4.624;2022-08-07T03:04:44;102769.66;;;18.77;54.48
62508;BME280;48556;51.972;4.624;2022-08-07T03:07:12;102772.84;;;19.02;53.80
62508;BME280;48556;51.972;4.624;2022-08-07T03:09:39;102773.94;;;18.87;54.07
62508;BME280;48556;51.972;4.624;2022-08-07T03:12:06;102775.69;;;18.90;53.85
62508;BME280;48556;51.972;4.624;2022-08-07T03:14:33;102766.28;;;18.62;54.29
62508;BME280;48556;51.972;4.624;2022-08-07T03:17:02;102774.09;;;18.75;54.20
62508;BME280;48556;51.972;4.624;2022-08-07T03:19:29;102773.13;;;18.81;54.35
62508;BME280;48556;51.972;4.624;2022-08-07T03:21:55;102766.34;;;18.59;54.88
62508;BME280;48556;51.972;4.624;2022-08-07T03:24:21;102772.56;;;18.61;55.03
62508;BME280;48556;51.972;4.624;2022-08-07T03:26:51;102763.50;;;18.72;55.01
62508;BME280;48556;51.972;4.624;2022-08-07T03:29:20;102768.66;;;18.83;54.60
62508;BME280;48556;51.972;4.624;2022-08-07T03:31:48;102769.53;;;18.83;54.83
62508;BME280;48556;51.972;4.624;2022-08-07T03:34:17;102764.69;;;18.52;55.77
62508;BME280;48556;51.972;4.624;2022-08-07T03:36:44;102767.16;;;18.65;55.31
62508;BME280;48556;51.972;4.624;2022-08-07T03:39:12;102757.38;;;18.65;54.89
62508;BME280;48556;51.972;4.624;2022-08-07T03:41:40;102759.13;;;18.68;54.71
62508;BME280;48556;51.972;4.624;2022-08-07T03:44:06;102756.09;;;18.92;54.13
62508;BME280;48556;51.972;4.624;2022-08-07T03:46:32;102761.91;;;18.61;55.49
62508;BME280;48556;51.972;4.624;2022-08-07T03:49:00;102762.66;;;18.68;55.41
62508;BME280;48556;51.972;4.624;2022-08-07T03:51:28;102763.47;;;18.73;55.19
62508;BME280;48556;51.972;4.624;2022-08-07T03:53:54;102762.66;;;18.68;54.78
62508;BME280;48556;51.972;4.624;2022-08-07T03:56:23;102754.00;;;18.54;54.79
62508;BME280;48556;51.972;4.624;2022-08-07T03:58:50;102758.28;;;18.66;54.57
62508;BME280;48556;51.972;4.624;2022-08-07T04:01:18;102749.53;;;18.57;54.80
62508;BME280;48556;51.972;4.624;2022-08-07T04:03:44;102753.03;;;18.59;54.69
62508;BME280;48556;51.972;4.624;2022-08-07T04:06:11;102758.47;;;18.53;54.55
62508;BME280;48556;51.972;4.624;2022-08-07T04:08:41;102758.22;;;18.69;54.37
62508;BME280;48556;51.972;4.624;2022-08-07T04:11:09;102768.13;;;18.60;54.84
62508;BME280;48556;51.972;4.624;2022-08-07T04:13:36;102764.75;;;18.48;55.64
62508;BME280;48556;51.972;4.624;2022-08-07T04:16:02;102764.91;;;18.37;55.83
62508;BME280;48556;51.972;4.624;2022-08-07T04:18:28;102767.41;;;18.49;55.43
62508;BME280;48556;51.972;4.624;2022-08-07T04:20:54;102758.53;;;18.47;55.45
62508;BME280;48556;51.972;4.624;2022-08-07T04:23:21;102756.00;;;18.39;55.63
62508;BME280;48556;51.972;4.624;2022-08-07T04:25:48;102761.38;;;18.35;55.76
62508;BME280;48556;51.972;4.624;2022-08-07T04:28:13;102763.22;;;18.31;55.72
62508;BME280;48556;51.972;4.624;2022-08-07T04:30:40;102764.91;;;18.37;55.80
62508;BME280;48556;51.972;4.624;2022-08-07T04:33:08;102769.34;;;18.38;55.84
62508;BME280;48556;51.972;4.624;2022-08-07T04:35:36;102770.81;;;18.59;55.36
62508;BME280;48556;51.972;4.624;2022-08-07T04:38:07;102772.56;;;18.61;55.41
62508;BME280;48556;51.972;4.624;2022-08-07T04:40:34;102767.44;;;18.44;55.78
62508;BME280;48556;51.972;4.624;2022-08-07T04:43:03;102762.88;;;18.54;55.08
62508;BME280;48556;51.972;4.624;2022-08-07T04:46:10;102758.34;;;18.59;54.76
62508;BME280;48556;51.972;4.624;2022-08-07T04:54:07;102770.59;;;18.73;54.67
62508;BME280;48556;51.972;4.624;2022-08-07T04:56:45;102766.13;;;18.75;54.68
62508;BME280;48556;51.972;4.624;2022-08-07T04:59:21;102783.97;;;18.68;54.96
62508;BME280;48556;51.972;4.624;2022-08-07T05:02:05;102784.06;;;18.64;55.25
62508;BME280;48556;51.972;4.624;2022-08-07T05:04:45;102780.50;;;18.65;55.42
62508;BME280;48556;51.972;4.624;2022-08-07T05:07:21;102789.06;;;18.85;54.79
62508;BME280;48556;51.972;4.624;2022-08-07T05:09:55;102795.41;;;18.76;54.95
62508;BME280;48556;51.972;4.624;2022-08-07T05:12:27;102792.03;;;18.64;55.27
62508;BME280;48556;51.972;4.624;2022-08-07T05:15:02;102788.13;;;18.86;54.91
62508;BME280;48556;51.972;4.624;2022-08-07T05:17:46;102784.69;;;18.81;54.58
62508;BME280;48556;51.972;4.624;2022-08-07T05:20:16;102793.56;;;18.82;54.37
62508;BME280;48556;51.972;4.624;2022-08-07T05:22:49;102793.47;;;18.89;54.85
62508;BME280;48556;51.972;4.624;2022-08-07T05:25:19;102802.59;;;19.29;54.21
62508;BME280;48556;51.972;4.624;2022-08-07T05:27:47;102793.13;;;19.09;54.41
62508;BME280;48556;51.972;4.624;2022-08-07T05:30:16;102800.28;;;19.09;54.40
62508;BME280;48556;51.972;4.624;2022-08-07T05:32:43;102799.41;;;19.07;54.88
62508;BME280;48556;51.972;4.624;2022-08-07T05:35:14;102790.34;;;19.19;55.20
62508;BME280;48556;51.972;4.624;2022-08-07T05:37:44;102791.13;;;19.22;55.13
62508;BME280;48556;51.972;4.624;2022-08-07T05:40:12;102787.44;;;19.33;55.19
62508;BME280;48556;51.972;4.624;2022-08-07T05:42:38;102789.81;;;19.48;54.69
62508;BME280;48556;51.972;4.624;2022-08-07T05:45:05;102795.38;;;19.36;54.64
62508;BME280;48556;51.972;4.624;2022-08-07T05:47:32;102787.88;;;19.55;54.18
62508;BME280;48556;51.972;4.624;2022-08-07T05:49:59;102797.69;;;19.54;54.28
62508;BME280;48556;51.972;4.624;2022-08-07T05:52:26;102798.78;;;19.44;54.32
62508;BME280;48556;51.972;4.624;2022-08-07T05:54:52;102800.31;;;19.56;54.51
62508;BME280;48556;51.972;4.624;2022-08-07T05:57:19;102796.78;;;19.55;54.43
62508;BME280;48556;51.972;4.624;2022-08-07T05:59:46;102796.47;;;19.72;53.71
62508;BME280;48556;51.972;4.624;2022-08-07T06:02:18;102806.00;;;19.87;53.99
62508;BME280;48556;51.972;4.624;2022-08-07T06:04:51;102804.34;;;19.80;54.35
62508;BME280;48556;51.972;4.624;2022-08-07T06:07:18;102802.41;;;19.88;54.46
62508;BME280;48556;51.972;4.624;2022-08-07T06:09:45;102793.25;;;20.02;54.03
62508;BME280;48556;51.972;4.624;2022-08-07T06:12:16;102802.03;;;20.07;53.60
62508;BME280;48556;51.972;4.624;2022-08-07T06:14:42;102791.94;;;20.21;53.29
62508;BME280;48556;51.972;4.624;2022-08-07T06:17:08;102795.44;;;20.25;53.69
62508;BME280;48556;51.972;4.624;2022-08-07T06:19:39;102798.78;;;20.35;53.37
62508;BME280;48556;51.972;4.624;2022-08-07T06:22:05;102796.13;;;20.35;53.34
62508;BME280;48556;51.972;4.624;2022-08-07T06:24:31;102798.75;;;20.36;53.14
62508;BME280;48556;51.972;4.624;2022-08-07T06:26:57;102797.25;;;20.62;53.04
62508;BME280;48556;51.972;4.624;2022-08-07T06:29:27;102791.16;;;20.16;54.33
62508;BME280;48556;51.972;4.624;2022-08-07T06:31:52;102803.06;;;20.42;53.55
62508;BME280;48556;51.972;4.624;2022-08-07T06:34:18;102808.41;;;20.42;53.26
62508;BME280;48556;51.972;4.624;2022-08-07T06:36:44;102800.88;;;20.59;52.06
62508;BME280;48556;51.972;4.624;2022-08-07T06:39:11;102803.75;;;20.52;52.25
62508;BME280;48556;51.972;4.624;2022-08-07T06:41:48;102798.25;;;20.58;52.15
62508;BME280;48556;51.972;4.624;2022-08-07T06:44:22;102796.41;;;20.61;52.06
62508;BME280;48556;51.972;4.624;2022-08-07T06:46:48;102805.50;;;20.53;52.46
62508;BME280;48556;51.972;4.624;2022-08-07T06:49:14;102790.47;;;20.48;52.34
62508;BME280;48556;51.972;4.624;2022-08-07T06:51:44;102802.50;;;20.66;51.80
62508;BME280;48556;51.972;4.624;2022-08-07T06:54:13;102804.38;;;21.02;50.56
62508;BME280;48556;51.972;4.624;2022-08-07T06:56:42;102801.94;;;20.91;51.19
62508;BME280;48556;51.972;4.624;2022-08-07T06:59:21;102798.22;;;20.59;52.23
62508;BME280;48556;51.972;4.624;2022-08-07T07:01:49;102794.78;;;20.93;51.22
62508;BME280;48556;51.972;4.624;2022-08-07T07:04:39;102795.09;;;21.17;50.38
62508;BME280;48556;51.972;4.624;2022-08-07T07:07:11;102794.50;;;20.68;51.35
62508;BME280;48556;51.972;4.624;2022-08-07T07:09:36;102807.81;;;20.27;51.52
62508;BME280;48556;51.972;4.624;2022-08-07T07:17:43;102814.13;;;21.05;48.17
62508;BME280;48556;51.972;4.624;2022-08-07T07:20:18;102814.44;;;20.91;48.84
62508;BME280;48556;51.972;4.624;2022-08-07T07:22:46;102817.78;;;21.00;49.59
62508;BME280;48556;51.972;4.624;2022-08-07T07:25:14;102807.31;;;20.91;49.03
62508;BME280;48556;51.972;4.624;2022-08-07T07:28:04;102815.09;;;21.00;48.01
62508;BME280;48556;51.972;4.624;2022-08-07T07:30:49;102816.78;;;20.65;47.83
62508;BME280;48556;51.972;4.624;2022-08-07T07:33:18;102800.63;;;20.72;48.61
62508;BME280;48556;51.972;4.624;2022-08-07T07:35:50;102804.44;;;20.99;47.47
62508;BME280;48556;51.972;4.624;2022-08-07T07:38:25;102809.47;;;21.13;47.86
62508;BME280;48556;51.972;4.624;2022-08-07T07:41:05;102801.25;;;21.55;45.60
62508;BME280;48556;51.972;4.624;2022-08-07T07:43:39;102803.94;;;21.55;45.60
62508;BME280;48556;51.972;4.624;2022-08-07T07:46:08;102798.94;;;21.40;46.29
62508;BME280;48556;51.972;4.624;2022-08-07T07:48:36;102801.84;;;21.98;44.63
62508;BME280;48556;51.972;4.624;2022-08-07T07:51:05;102805.22;;;21.73;44.95
62508;BME280;48556;51.972;4.624;2022-08-07T07:53:37;102798.09;;;21.72;45.21
62508;BME280;48556;51.972;4.624;2022-08-07T07:56:07;102798.47;;;21.24;45.95
62508;BME280;48556;51.972;4.624;2022-08-07T07:58:38;102788.06;;;21.80;44.50
62508;BME280;48556;51.972;4.624;2022-08-07T08:01:07;102790.00;;;21.41;45.45
62508;BME280;48556;51.972;4.624;2022-08-07T08:03:36;102784.72;;;21.72;44.30
62508;BME280;48556;51.972;4.624;2022-08-07T08:06:06;102784.84;;;21.67;44.21
62508;BME280;48556;51.972;4.624;2022-08-07T08:08:34;102786.09;;;21.54;44.29
62508;BME280;48556;51.972;4.624;2022-08-07T08:11:05;102783.47;;;22.15;42.99
62508;BME280;48556;51.972;4.624;2022-08-07T08:13:38;102781.44;;;22.53;42.12
62508;BME280;48556;51.972;4.624;2022-08-07T08:16:06;102781.41;;;22.55;41.87
62508;BME280;48556;51.972;4.624;2022-08-07T08:18:35;102780.59;;;22.80;41.50
62508;BME280;48556;51.972;4.624;2022-08-07T08:21:24;102782.25;;;22.84;40.99
62508;BME280;48556;51.972;4.624;2022-08-07T08:24:09;102790.63;;;23.01;40.26
62508;BME280;48556;51.972;4.624;2022-08-07T08:26:59;102785.38;;;23.25;39.60
62508;BME280;48556;51.972;4.624;2022-08-07T08:29:51;102782.09;;;23.42;37.39
62508;BME280;48556;51.972;4.624;2022-08-07T08:32:24;102778.66;;;23.12;38.24
62508;BME280;48556;51.972;4.624;2022-08-07T08:34:53;102772.22;;;23.43;38.01
62508;BME280;48556;51.972;4.624;2022-08-07T08:37:25;102770.97;;;23.53;38.17
62508;BME280;48556;51.972;4.624;2022-08-07T08:39:53;102776.66;;;23.69;38.34
62508;BME280;48556;51.972;4.624;2022-08-07T08:55:37;102769.00;;;23.82;38.04
62508;BME280;48556;51.972;4.624;2022-08-07T09:01:23;102759.56;;;23.71;36.74
62508;BME280;48556;51.972;4.624;2022-08-07T09:06:57;102760.94;;;24.07;35.05
62508;BME280;48556;51.972;4.624;2022-08-07T09:09:49;102767.19;;;24.08;35.38
62508;BME280;48556;51.972;4.624;2022-08-07T09:12:44;102762.91;;;24.26;34.59
62508;BME280;48556;51.972;4.624;2022-08-07T09:15:14;102761.25;;;23.99;35.62
62508;BME280;48556;51.972;4.624;2022-08-07T09:41:08;102761.47;;;24.39;33.68
62508;BME280;48556;51.972;4.624;2022-08-07T09:50:09;102756.75;;;24.68;32.45
62508;BME280;48556;51.972;4.624;2022-08-07T09:53:19;102742.78;;;25.02;32.04
62508;BME280;48556;51.972;4.624;2022-08-07T10:21:31;102719.00;;;25.34;30.93
62508;BME280;48556;51.972;4.624;2022-08-07T10:40:39;102687.75;;;25.89;29.12
62508;BME280;48556;51.972;4.624;2022-08-07T10:44:10;102692.13;;;26.10;29.02
62508;BME280;48556;51.972;4.624;2022-08-07T11:00:17;102688.31;;;26.88;26.47
62508;BME280;48556;51.972;4.624;2022-08-07T11:03:18;102676.28;;;26.58;26.52
62508;BME280;48556;51.972;4.624;2022-08-07T11:06:12;102673.53;;;26.95;26.75
62508;BME280;48556;51.972;4.624;2022-08-07T11:08:59;102672.38;;;27.17;27.40
62508;BME280;48556;51.972;4.624;2022-08-07T11:11:38;102664.34;;;27.15;27.15
62508;BME280;48556;51.972;4.624;2022-08-07T11:17:28;102652.59;;;27.67;27.37
62508;BME280;48556;51.972;4.624;2022-08-07T11:20:18;102661.81;;;27.29;27.70
62508;BME280;48556;51.972;4.624;2022-08-07T11:25:32;102642.44;;;27.55;27.23
62508;BME280;48556;51.972;4.624;2022-08-07T11:28:27;102649.56;;;27.56;27.57
62508;BME280;48556;51.972;4.624;2022-08-07T11:34:07;102641.25;;;27.60;27.12
62508;BME280;48556;51.972;4.624;2022-08-07T11:36:44;102644.56;;;28.13;26.54
62508;BME280;48556;51.972;4.624;2022-08-07T11:39:29;102633.25;;;29.12;25.59
62508;BME280;48556;51.972;4.624;2022-08-07T12:00:08;102610.47;;;30.80;25.88
62508;BME280;48556;51.972;4.624;2022-08-07T12:02:46;102610.69;;;30.77;25.59
62508;BME280;48556;51.972;4.624;2022-08-07T12:08:06;102621.88;;;31.11;24.94
62508;BME280;48556;51.972;4.624;2022-08-07T12:10:41;102620.38;;;31.70;23.85
62508;BME280;48556;51.972;4.624;2022-08-07T12:13:22;102609.94;;;32.12;23.17
62508;BME280;48556;51.972;4.624;2022-08-07T12:16:17;102619.22;;;32.34;22.77
62508;BME280;48556;51.972;4.624;2022-08-07T12:25:28;102619.63;;;33.21;20.78
62508;BME280;48556;51.972;4.624;2022-08-07T12:30:55;102618.94;;;33.86;19.96
62508;BME280;48556;51.972;4.624;2022-08-07T12:33:32;102617.09;;;33.75;20.07
62508;BME280;48556;51.972;4.624;2022-08-07T12:36:34;102615.66;;;34.03;19.25
62508;BME280;48556;51.972;4.624;2022-08-07T12:39:04;102615.66;;;34.03;19.03
62508;BME280;48556;51.972;4.624;2022-08-07T12:41:34;102610.97;;;34.69;18.38
62508;BME280;48556;51.972;4.624;2022-08-07T12:44:06;102607.22;;;34.39;18.30
62508;BME280;48556;51.972;4.624;2022-08-07T12:58:40;102608.19;;;34.80;18.94
62508;BME280;48556;51.972;4.624;2022-08-07T13:05:06;102599.50;;;34.44;18.47
62508;BME280;48556;51.972;4.624;2022-08-07T13:10:53;102591.78;;;35.32;17.65
62508;BME280;48556;51.972;4.624;2022-08-07T13:23:52;102597.44;;;35.60;16.72
62508;BME280;48556;51.972;4.624;2022-08-07T13:35:28;102587.03;;;38.01;15.15
62508;BME280;48556;51.972;4.624;2022-08-07T13:43:49;102588.03;;;36.80;16.40
62508;BME280;48556;51.972;4.624;2022-08-07T13:46:28;102578.91;;;35.83;17.10
62508;BME280;48556;51.972;4.624;2022-08-07T13:49:00;102581.69;;;36.80;16.34
62508;BME280;48556;51.972;4.624;2022-08-07T13:51:31;102575.97;;;38.10;15.38
62508;BME280;48556;51.972;4.624;2022-08-07T13:54:15;102575.59;;;37.87;15.73
62508;BME280;48556;51.972;4.624;2022-08-07T13:57:10;102576.22;;;37.81;16.04
62508;BME280;48556;51.972;4.624;2022-08-07T13:59:44;102577.81;;;36.63;17.04
62508;BME280;48556;51.972;4.624;2022-08-07T14:02:32;102575.84;;;35.67;17.75
62508;BME280;48556;51.972;4.624;2022-08-07T14:05:10;102571.56;;;36.23;17.78
62508;BME280;48556;51.972;4.624;2022-08-07T14:10:45;102575.53;;;35.40;18.67
62508;BME280;48556;51.972;4.624;2022-08-07T14:13:28;102581.66;;;35.83;18.14
62508;BME280;48556;51.972;4.624;2022-08-07T14:16:08;102580.06;;;35.90;18.17
62508;BME280;48556;51.972;4.624;2022-08-07T14:18:57;102573.56;;;36.31;17.52
62508;BME280;48556;51.972;4.624;2022-08-07T14:21:41;102589.06;;;34.17;19.59
62508;BME280;48556;51.972;4.624;2022-08-07T14:24:27;102582.69;;;33.51;20.67
62508;BME280;48556;51.972;4.624;2022-08-07T14:26:57;102589.91;;;32.96;21.10
62508;BME280;48556;51.972;4.624;2022-08-07T14:29:38;102598.06;;;32.73;21.38
62508;BME280;48556;51.972;4.624;2022-08-07T14:32:08;102588.66;;;32.77;21.71
62508;BME280;48556;51.972;4.624;2022-08-07T14:34:44;102596.19;;;32.27;22.33
62508;BME280;48556;51.972;4.624;2022-08-07T14:37:15;102589.59;;;31.94;22.67
62508;BME280;48556;51.972;4.624;2022-08-07T14:39:43;102591.22;;;30.96;23.94
62508;BME280;48556;51.972;4.624;2022-08-07T14:42:11;102592.97;;;30.97;23.74
62508;BME280;48556;51.972;4.624;2022-08-07T14:45:04;102589.47;;;30.82;23.80
62508;BME280;48556;51.972;4.624;2022-08-07T14:47:37;102594.41;;;30.77;23.66
62508;BME280;48556;51.972;4.624;2022-08-07T14:50:06;102600.88;;;30.49;24.01
62508;BME280;48556;51.972;4.624;2022-08-07T14:52:35;102593.84;;;30.85;23.71
62508;BME280;48556;51.972;4.624;2022-08-07T14:55:26;102588.97;;;31.90;22.61
62508;BME280;48556;51.972;4.624;2022-08-07T14:58:14;102588.78;;;33.10;21.19
62508;BME280;48556;51.972;4.624;2022-08-07T15:00:43;102586.25;;;34.07;20.05
62508;BME280;48556;51.972;4.624;2022-08-07T15:03:32;102585.75;;;34.55;19.03
62508;BME280;48556;51.972;4.624;2022-08-07T15:06:04;102587.22;;;33.73;20.13
62508;BME280;48556;51.972;4.624;2022-08-07T15:08:45;102585.19;;;33.20;20.98
62508;BME280;48556;51.972;4.624;2022-08-07T15:11:20;102579.03;;;33.85;20.05
62508;BME280;48556;51.972;4.624;2022-08-07T15:13:55;102581.00;;;33.05;20.68
62508;BME280;48556;51.972;4.624;2022-08-07T15:16:33;102577.28;;;33.84;19.03
62508;BME280;48556;51.972;4.624;2022-08-07T15:19:07;102575.97;;;35.05;17.28
62508;BME280;48556;51.972;4.624;2022-08-07T15:21:45;102581.03;;;35.19;17.55
62508;BME280;48556;51.972;4.624;2022-08-07T15:24:24;102570.84;;;36.11;16.64
62508;BME280;48556;51.972;4.624;2022-08-07T15:27:30;102563.91;;;36.17;16.90
62508;BME280;48556;51.972;4.624;2022-08-07T15:30:06;102563.75;;;36.18;16.86
62508;BME280;48556;51.972;4.624;2022-08-07T15:32:32;102571.09;;;36.27;16.29
62508;BME280;48556;51.972;4.624;2022-08-07T15:35:04;102566.31;;;36.97;15.14
62508;BME280;48556;51.972;4.624;2022-08-07T15:40:37;102558.19;;;37.05;14.40
62508;BME280;48556;51.972;4.624;2022-08-07T15:46:25;102556.69;;;37.84;14.76
62508;BME280;48556;51.972;4.624;2022-08-07T15:49:01;102558.16;;;37.60;14.98
62508;BME280;48556;51.972;4.624;2022-08-07T15:51:30;102552.97;;;38.29;14.59
62508;BME280;48556;51.972;4.624;2022-08-07T15:54:01;102554.09;;;37.65;15.14
62508;BME280;48556;51.972;4.624;2022-08-07T15:59:50;102547.03;;;35.63;17.13
62508;BME280;48556;51.972;4.624;2022-08-07T16:06:05;102549.28;;;33.27;19.92
62508;BME280;48556;51.972;4.624;2022-08-07T16:12:41;102545.75;;;30.74;22.69
62508;BME280;48556;51.972;4.624;2022-08-07T16:58:21;102550.78;;;25.80;32.65
62508;BME280;48556;51.972;4.624;2022-08-07T17:01:40;102546.50;;;25.75;32.72
62508;BME280;48556;51.972;4.624;2022-08-07T17:07:22;102545.78;;;26.08;32.95
62508;BME280;48556;51.972;4.624;2022-08-07T17:10:29;102547.13;;;26.17;33.40
62508;BME280;48556;51.972;4.624;2022-08-07T17:17:02;102544.69;;;26.13;34.07
62508;BME280;48556;51.972;4.624;2022-08-07T17:19:46;102548.72;;;25.48;36.17
62508;BME280;48556;51.972;4.624;2022-08-07T17:22:29;102544.00;;;25.90;35.90
62508;BME280;48556;51.972;4.624;2022-08-07T17:25:15;102536.47;;;25.41;36.82
62508;BME280;48556;51.972;4.624;2022-08-07T17:28:03;102529.81;;;25.50;37.07
62508;BME280;48556;51.972;4.624;2022-08-07T17:31:01;102535.88;;;25.15;37.55
62508;BME280;48556;51.972;4.624;2022-08-07T17:33:34;102532.06;;;25.00;37.72
62508;BME280;48556;51.972;4.624;2022-08-07T17:36:46;102532.69;;;25.26;37.19
62508;BME280;48556;51.972;4.624;2022-08-07T17:39:48;102524.53;;;25.28;37.44
62508;BME280;48556;51.972;4.624;2022-08-07T17:43:05;102537.63;;;25.16;38.50
62508;BME280;48556;51.972;4.624;2022-08-07T17:49:22;102535.69;;;24.80;39.40
62508;BME280;48556;51.972;4.624;2022-08-07T17:51:55;102530.63;;;24.93;39.37
62508;BME280;48556;51.972;4.624;2022-08-07T17:54:41;102538.38;;;24.60;39.92
62508;BME280;48556;51.972;4.624;2022-08-07T17:59:55;102525.53;;;25.06;39.16